Time;durP1;ratioP1;P1;durP2;ratioP2;P2;SDS_P1;SDS_P2;PMS_P1;PMS_P2;Temp;Humidity;BMP_temperature;BMP_pressure;BME280_temperature;BME280_humidity;BME280_pressure;Samples;Min_cycle;Max_cycle;Signal;HPM_P1;HPM_P2
2023/01/03 00:03:27;;;;;;;7.20;3.70;;;;;;;7.72;100.00;101490.53;20861423;28;20056;-72
2023/01/03 00:13:28;;;;;;;8.63;4.00;;;;;;;7.87;100.00;101505.50;20876124;28;20057;-72
2023/01/03 00:23:29;;;;;;;4.93;2.17;;;;;;;8.01;100.00;101502.19;20865795;28;20397;-72
2023/01/03 00:33:31;;;;;;;6.50;2.45;;;;;;;8.11;100.00;101509.28;20855859;28;20044;-72
2023/01/03 00:43:32;;;;;;;4.60;2.03;;;;;;;8.17;100.00;101505.00;20856506;28;20049;-72
2023/01/03 00:53:33;;;;;;;5.20;2.78;;;;;;;8.13;100.00;101494.50;20857043;28;20056;-72
2023/01/03 01:03:35;;;;;;;5.50;2.00;;;;;;;8.00;100.00;101508.25;20856478;28;20056;-72
2023/01/03 01:13:36;;;;;;;4.53;1.85;;;;;;;7.91;100.00;101507.31;20855815;28;20087;-72
2023/01/03 01:23:38;;;;;;;5.00;2.05;;;;;;;7.81;100.00;101521.06;20860085;28;20436;-72
2023/01/03 01:33:39;;;;;;;7.75;2.38;;;;;;;7.61;100.00;101532.94;20853953;28;20049;-72
2023/01/03 01:54:00;;;;;;;5.47;2.45;;;;;;;7.34;100.00;101549.91;20862309;28;20542;-72
2023/01/03 02:04:01;;;;;;;5.60;2.60;;;;;;;7.33;100.00;101552.47;20868251;28;20056;-72
2023/01/03 02:14:03;;;;;;;6.80;2.20;;;;;;;7.30;100.00;101535.09;20868609;28;20053;-72
2023/01/03 02:24:05;;;;;;;5.28;2.13;;;;;;;7.36;100.00;101529.09;20869902;28;20079;-72
2023/01/03 02:34:07;;;;;;;4.65;1.73;;;;;;;7.33;100.00;101527.31;20866463;28;20052;-72
2023/01/03 02:44:08;;;;;;;4.43;1.80;;;;;;;7.31;100.00;101526.41;20866842;28;20115;-72
2023/01/03 02:54:09;;;;;;;3.10;1.60;;;;;;;7.25;100.00;101528.06;20865508;28;20050;-71
2023/01/03 03:04:11;;;;;;;6.00;2.25;;;;;;;7.34;100.00;101525.59;20864387;28;20064;-72
2023/01/03 03:14:12;;;;;;;5.78;2.10;;;;;;;7.08;100.00;101535.56;20862415;28;20045;-72
2023/01/03 03:34:37;;;;;;;4.65;2.25;;;;;;;6.71;100.00;101537.56;20860317;28;20045;-72
2023/01/03 03:55:02;;;;;;;5.03;2.35;;;;;;;6.10;100.00;101552.84;20852436;28;20136;-72
2023/01/03 04:05:04;;;;;;;4.93;2.58;;;;;;;5.92;100.00;101562.81;20859800;28;20063;-71
2023/01/03 04:15:06;;;;;;;8.45;3.05;;;;;;;5.73;100.00;101566.69;20859208;28;20152;-71
2023/01/03 04:25:07;;;;;;;9.30;4.00;;;;;;;5.65;100.00;101576.03;20861500;28;20095;-71
2023/01/03 04:35:09;;;;;;;7.70;4.03;;;;;;;5.59;100.00;101574.19;20858825;28;20056;-71
2023/01/03 04:45:10;;;;;;;6.35;3.53;;;;;;;5.43;100.00;101573.78;20858361;28;20092;-71
2023/01/03 04:55:12;;;;;;;7.22;3.72;;;;;;;5.44;100.00;101578.13;20857387;28;20398;-71
2023/01/03 05:05:13;;;;;;;7.72;3.92;;;;;;;5.31;100.00;101580.44;20862389;28;20472;-71
2023/01/03 05:15:14;;;;;;;9.23;3.45;;;;;;;5.19;100.00;101574.94;20877104;28;20557;-71
2023/01/03 05:35:37;;;;;;;5.95;2.78;;;;;;;4.99;100.00;101590.03;20869174;28;20053;-71
2023/01/03 05:45:38;;;;;;;15.02;7.32;;;;;;;4.86;100.00;101596.59;20870769;28;20057;-71
2023/01/03 05:55:39;;;;;;;20.48;9.55;;;;;;;4.74;100.00;101604.03;20870481;28;20056;-71
2023/01/03 06:05:41;;;;;;;20.25;9.05;;;;;;;4.69;100.00;101613.41;20868948;28;20051;-71
2023/01/03 06:17:53;;;;;;;13.55;7.05;;;;;;;4.74;100.00;101606.63;20868815;28;20049;-71
2023/01/03 06:26:11;;;;;;;11.68;5.90;;;;;;;4.64;100.00;101615.00;20868470;28;20052;-71
2023/01/03 06:36:12;;;;;;;9.77;5.80;;;;;;;4.57;100.00;101618.25;20864990;28;20079;-72
2023/01/03 06:56:34;;;;;;;22.65;12.15;;;;;;;4.47;100.00;101631.81;20869986;28;20050;-82
2023/01/03 07:06:35;;;;;;;15.07;8.63;;;;;;;4.34;100.00;101610.69;20886520;28;20049;-82
2023/01/03 07:16:36;;;;;;;9.88;5.78;;;;;;;4.37;100.00;101641.03;20897286;28;20518;-82
2023/01/03 07:26:38;;;;;;;11.65;6.60;;;;;;;4.29;100.00;101650.28;20897608;28;20056;-83
2023/01/03 07:36:39;;;;;;;14.00;7.03;;;;;;;4.25;100.00;101645.84;20874249;28;20457;-83
2023/01/03 07:46:40;;;;;;;14.50;7.78;;;;;;;4.19;100.00;101656.91;20902857;28;20049;-82
2023/01/03 07:56:41;;;;;;;19.70;11.57;;;;;;;4.20;100.00;101669.03;20889393;28;20401;-83
2023/01/03 08:06:43;;;;;;;16.05;9.63;;;;;;;4.22;100.00;101690.72;20856610;28;20053;-83
2023/01/03 08:16:44;;;;;;;13.48;7.45;;;;;;;4.19;100.00;101698.38;20986432;28;20029;-83
2023/01/03 08:26:45;;;;;;;13.52;8.00;;;;;;;4.23;100.00;101704.56;20944363;28;20081;-83
2023/01/03 08:36:46;;;;;;;13.90;8.65;;;;;;;4.36;100.00;101717.94;20887601;28;20460;-83
2023/01/03 08:46:48;;;;;;;11.35;5.68;;;;;;;4.59;100.00;101710.84;20898207;28;20045;-83
2023/01/03 08:56:49;;;;;;;14.23;6.90;;;;;;;4.94;100.00;101725.69;20860920;28;20040;-83
2023/01/03 09:06:50;;;;;;;30.88;17.13;;;;;;;5.00;100.00;101738.84;20894199;28;20428;-83
2023/01/03 09:16:52;;;;;;;14.43;8.90;;;;;;;5.10;100.00;101741.72;20909194;28;20146;-83
2023/01/03 09:26:53;;;;;;;13.30;9.27;;;;;;;5.45;100.00;101757.41;20909924;28;20051;-81
2023/01/03 09:36:55;;;;;;;12.73;7.43;;;;;;;5.77;100.00;101752.16;20881098;28;20052;-83
2023/01/03 09:46:56;;;;;;;13.15;7.80;;;;;;;6.04;100.00;101757.22;20873307;28;20060;-82
2023/01/03 10:07:26;;;;;;;12.10;7.90;;;;;;;6.73;100.00;101749.28;20952553;28;20104;-82
2023/01/03 10:17:27;;;;;;;11.05;6.70;;;;;;;6.96;100.00;101739.34;20917216;28;20099;-82
2023/01/03 10:27:29;;;;;;;7.82;4.72;;;;;;;7.31;100.00;101747.84;20880643;28;20104;-83
2023/01/03 10:37:30;;;;;;;9.52;4.32;;;;;;;7.49;100.00;101733.44;20906865;28;20041;-82
2023/01/03 10:47:31;;;;;;;7.00;3.80;;;;;;;7.72;100.00;101722.56;20915338;28;20060;-83
2023/01/03 10:57:32;;;;;;;7.45;4.00;;;;;;;8.04;100.00;101716.09;20927051;28;20052;-83
2023/01/03 11:07:34;;;;;;;7.97;4.45;;;;;;;8.19;100.00;101701.59;20910647;28;20045;-82
2023/01/03 11:17:35;;;;;;;6.57;3.00;;;;;;;8.54;100.00;101703.84;20948471;28;20112;-83
2023/01/03 11:27:36;;;;;;;6.53;2.88;;;;;;;8.71;100.00;101704.91;20920552;28;20100;-83
2023/01/03 11:37:38;;;;;;;9.25;4.50;;;;;;;8.93;100.00;101700.84;20903061;28;20469;-83
2023/01/03 11:47:39;;;;;;;7.68;3.60;;;;;;;9.59;100.00;101692.84;20916072;28;20083;-83
2023/01/03 11:57:40;;;;;;;6.20;3.20;;;;;;;9.83;100.00;101677.34;20989529;28;20067;-83
2023/01/03 12:07:41;;;;;;;7.50;3.38;;;;;;;10.11;100.00;101667.94;20958142;28;20128;-83
2023/01/03 12:17:50;;;;;;;7.65;2.97;;;;;;;9.97;100.00;101675.72;20901957;28;20045;-83
2023/01/03 12:27:51;;;;;;;5.25;2.28;;;;;;;10.06;100.00;101655.69;20906035;28;20050;-83
2023/01/03 12:37:52;;;;;;;5.82;1.75;;;;;;;10.10;100.00;101645.25;20892966;28;20045;-83
2023/01/03 12:47:54;;;;;;;4.20;2.10;;;;;;;10.38;100.00;101634.97;20899010;28;20045;-83
2023/01/03 12:57:55;;;;;;;7.00;3.17;;;;;;;10.64;100.00;101635.09;20894382;28;20049;-83
2023/01/03 13:07:56;;;;;;;6.70;3.13;;;;;;;10.61;100.00;101620.22;20881458;23;20057;-74
2023/01/03 13:17:57;;;;;;;6.15;2.30;;;;;;;10.17;100.00;101622.63;20857918;28;20041;-74
2023/01/03 13:27:59;;;;;;;4.68;1.80;;;;;;;9.84;100.00;101608.47;20853177;28;20069;-75
2023/01/03 13:38:00;;;;;;;4.70;1.80;;;;;;;10.11;100.00;101612.09;20853557;28;20401;-74
2023/01/03 13:48:01;;;;;;;5.82;1.77;;;;;;;10.49;100.00;101605.38;20861195;28;20095;-74
2023/01/03 13:58:02;;;;;;;5.78;1.48;;;;;;;10.38;100.00;101614.88;20868908;28;20056;-74
2023/01/03 14:08:04;;;;;;;3.30;1.38;;;;;;;10.28;100.00;101615.72;20866173;28;20139;-74
2023/01/03 14:18:05;;;;;;;8.93;2.90;;;;;;;9.97;100.00;101615.53;20867783;28;20049;-74
2023/01/03 14:28:07;;;;;;;5.63;1.50;;;;;;;10.03;100.00;101610.31;20864783;28;20056;-74
2023/01/03 14:38:08;;;;;;;4.32;0.95;;;;;;;9.85;100.00;101615.44;20864757;28;20049;-74
2023/01/03 14:48:09;;;;;;;5.15;1.40;;;;;;;9.65;100.00;101609.19;20865923;28;20049;-73
2023/01/03 14:58:10;;;;;;;3.65;1.35;;;;;;;9.52;100.00;101616.94;20864326;28;20054;-73
2023/01/03 15:08:12;;;;;;;7.05;2.42;;;;;;;9.28;100.00;101624.56;20862456;28;20064;-74
2023/01/03 15:18:13;;;;;;;5.93;1.60;;;;;;;9.05;100.00;101628.69;20865295;28;20045;-74
2023/01/03 15:28:20;;;;;;;7.30;3.60;;;;;;;8.78;100.00;101645.81;20860270;28;20248;-73
2023/01/03 15:38:22;;;;;;;9.48;2.85;;;;;;;8.66;100.00;101648.28;20860190;28;20563;-74
2023/01/03 15:48:24;;;;;;;6.07;2.90;;;;;;;8.61;100.00;101663.00;20860534;28;20049;-73
2023/01/03 15:58:26;;;;;;;9.80;4.18;;;;;;;8.34;100.00;101648.72;20857706;28;20052;-74
2023/01/03 16:08:27;;;;;;;6.53;3.10;;;;;;;8.00;100.00;101655.22;20856315;28;20060;-74
2023/01/03 16:18:28;;;;;;;8.13;4.03;;;;;;;7.78;100.00;101667.03;20863563;28;20118;-75
2023/01/03 16:28:30;;;;;;;5.90;2.55;;;;;;;7.52;100.00;101678.72;20856550;28;20550;-75
2023/01/03 16:38:31;;;;;;;5.53;2.50;;;;;;;7.20;100.00;101673.84;20852331;28;20057;-75
2023/01/03 16:48:32;;;;;;;8.55;4.60;;;;;;;7.20;100.00;101687.75;20856522;28;20551;-75
2023/01/03 16:58:33;;;;;;;8.38;4.45;;;;;;;7.22;100.00;101700.78;20841088;28;20048;-75
2023/01/03 17:08:35;;;;;;;9.65;5.10;;;;;;;7.35;100.00;101696.69;20858541;28;20049;-74
2023/01/03 17:18:39;;;;;;;5.88;2.80;;;;;;;7.49;100.00;101699.56;20857104;28;20425;-74
2023/01/03 17:28:40;;;;;;;7.90;3.60;;;;;;;7.38;100.00;101701.97;20861875;28;20475;-73
2023/01/03 17:38:41;;;;;;;7.20;3.83;;;;;;;7.28;100.00;101715.66;20865607;28;20552;-73
2023/01/03 17:59:03;;;;;;;6.53;2.85;;;;;;;7.15;100.00;101714.56;20861847;28;20064;-73
2023/01/03 18:09:05;;;;;;;10.65;2.90;;;;;;;7.01;100.00;101731.63;20859146;28;20111;-74
2023/01/03 18:19:06;;;;;;;7.43;3.13;;;;;;;6.83;100.00;101735.59;20862241;28;20061;-73
2023/01/03 18:29:07;;;;;;;9.98;4.20;;;;;;;6.49;100.00;101741.81;20857370;28;20440;-74
2023/01/03 18:39:08;;;;;;;14.05;6.40;;;;;;;6.29;100.00;101733.56;20855274;28;20474;-74
2023/01/03 18:49:09;;;;;;;14.13;6.68;;;;;;;6.16;100.00;101739.31;20858061;28;20127;-74
2023/01/03 18:59:11;;;;;;;29.70;12.00;;;;;;;6.06;100.00;101733.00;20856718;28;20350;-74
2023/01/03 19:09:12;;;;;;;26.42;15.13;;;;;;;5.93;100.00;101738.75;20853326;28;20063;-74
2023/01/03 19:19:13;;;;;;;24.65;13.70;;;;;;;5.73;100.00;101734.75;20859330;28;20466;-74
2023/01/03 19:29:15;;;;;;;27.75;15.85;;;;;;;5.71;100.00;101737.31;20850924;28;20440;-74
2023/01/03 19:39:17;;;;;;;23.95;13.50;;;;;;;5.68;100.00;101737.22;20851698;28;20048;-74
2023/01/03 19:49:25;;;;;;;33.72;17.88;;;;;;;5.59;100.00;101729.19;20853030;28;20140;-74
2023/01/03 19:59:26;;;;;;;43.50;23.38;;;;;;;5.36;100.00;101721.66;20851537;28;20053;-73
2023/01/03 20:09:27;;;;;;;37.67;21.58;;;;;;;5.28;100.00;101710.22;20849411;28;20057;-74
2023/01/03 20:19:29;;;;;;;34.03;19.23;;;;;;;5.19;100.00;101715.16;20854073;28;20092;-74
2023/01/03 20:29:30;;;;;;;31.42;18.30;;;;;;;5.12;100.00;101711.50;20847722;28;20084;-73
2023/01/03 20:39:32;;;;;;;22.85;14.02;;;;;;;5.30;100.00;101705.91;20848450;28;20460;-73
2023/01/03 20:49:33;;;;;;;27.00;15.48;;;;;;;5.41;100.00;101698.41;20849378;28;20052;-73
2023/01/03 20:59:34;;;;;;;26.83;16.52;;;;;;;5.46;100.00;101682.94;20858085;28;20044;-73
2023/01/03 21:09:35;;;;;;;29.08;16.90;;;;;;;5.54;100.00;101664.13;20863793;28;20107;-73
2023/01/03 21:19:37;;;;;;;24.48;14.98;;;;;;;5.61;100.00;101670.38;20867944;28;20387;-74
2023/01/03 21:29:39;;;;;;;27.02;14.95;;;;;;;5.55;100.00;101665.88;20861658;28;20049;-74
2023/01/03 21:39:40;;;;;;;21.23;13.50;;;;;;;5.45;100.00;101658.69;20861302;28;20143;-74
2023/01/03 21:49:41;;;;;;;19.27;12.02;;;;;;;5.44;100.00;101663.84;20860695;28;20053;-73
2023/01/03 21:59:43;;;;;;;22.40;12.45;;;;;;;5.32;100.00;101660.13;20860725;28;20156;-73
2023/01/03 22:20:05;;;;;;;28.85;16.23;;;;;;;5.10;100.00;101631.81;20860135;28;20099;-75
2023/01/03 22:30:06;;;;;;;18.42;12.02;;;;;;;5.07;100.00;101632.59;20856401;28;20081;-74
2023/01/03 22:40:07;;;;;;;16.17;9.88;;;;;;;4.97;100.00;101624.53;20858157;28;20080;-75
2023/01/03 22:50:09;;;;;;;17.25;10.93;;;;;;;4.92;100.00;101642.59;20857947;28;20058;-76
2023/01/03 23:00:11;;;;;;;17.95;9.88;;;;;;;4.86;100.00;101650.22;20858132;28;20638;-75
2023/01/03 23:10:12;;;;;;;15.95;10.00;;;;;;;4.80;100.00;101642.25;20867125;28;20049;-75
2023/01/03 23:20:13;;;;;;;19.27;11.02;;;;;;;4.81;100.00;101629.31;20865508;28;20053;-75
2023/01/03 23:30:17;;;;;;;18.77;11.13;;;;;;;4.84;100.00;101618.16;20860091;28;20071;-75
2023/01/03 23:40:18;;;;;;;15.77;10.15;;;;;;;4.84;100.00;101611.25;20861349;28;20053;-75
2023/01/03 23:50:19;;;;;;;18.48;12.13;;;;;;;4.78;100.00;101608.47;20860469;28;20079;-75
